sensor_id;sensor_type;location;lat;lon;timestamp;P1;durP1;ratioP1;P2;durP2;ratioP2
38435;SDS011;24220;48.168;14.024;2023-07-20T00:00:32;4.28;;;3.20;;
38435;SDS011;24220;48.168;14.024;2023-07-20T00:03:16;4.32;;;3.33;;
38435;SDS011;24220;48.168;14.024;2023-07-20T00:05:48;4.05;;;3.50;;
38435;SDS011;24220;48.168;14.024;2023-07-20T00:08:17;3.13;;;2.83;;
38435;SDS011;24220;48.168;14.024;2023-07-20T00:10:47;3.92;;;3.10;;
38435;SDS011;24220;48.168;14.024;2023-07-20T00:13:19;5.43;;;3.90;;
38435;SDS011;24220;48.168;14.024;2023-07-20T00:15:51;4.25;;;3.25;;
38435;SDS011;24220;48.168;14.024;2023-07-20T00:18:19;4.15;;;3.20;;
38435;SDS011;24220;48.168;14.024;2023-07-20T00:20:49;3.45;;;3.08;;
38435;SDS011;24220;48.168;14.024;2023-07-20T00:23:21;4.78;;;3.50;;
38435;SDS011;24220;48.168;14.024;2023-07-20T00:25:51;5.07;;;3.40;;
38435;SDS011;24220;48.168;14.024;2023-07-20T00:28:18;4.00;;;3.40;;
38435;SDS011;24220;48.168;14.024;2023-07-20T00:30:48;5.70;;;4.18;;
38435;SDS011;24220;48.168;14.024;2023-07-20T00:33:16;3.35;;;3.05;;
38435;SDS011;24220;48.168;14.024;2023-07-20T00:35:44;5.05;;;3.55;;
38435;SDS011;24220;48.168;14.024;2023-07-20T00:38:14;3.92;;;3.17;;
38435;SDS011;24220;48.168;14.024;2023-07-20T00:40:43;5.22;;;3.13;;
38435;SDS011;24220;48.168;14.024;2023-07-20T00:43:11;3.35;;;2.80;;
38435;SDS011;24220;48.168;14.024;2023-07-20T00:45:38;3.80;;;3.30;;
38435;SDS011;24220;48.168;14.024;2023-07-20T00:48:06;4.25;;;3.10;;
38435;SDS011;24220;48.168;14.024;2023-07-20T00:50:38;5.65;;;3.50;;
38435;SDS011;24220;48.168;14.024;2023-07-20T00:53:07;5.20;;;2.90;;
38435;SDS011;24220;48.168;14.024;2023-07-20T00:55:37;4.43;;;3.50;;
38435;SDS011;24220;48.168;14.024;2023-07-20T00:58:07;5.55;;;3.50;;
38435;SDS011;24220;48.168;14.024;2023-07-20T01:00:38;4.45;;;4.05;;
38435;SDS011;24220;48.168;14.024;2023-07-20T01:03:05;3.72;;;3.33;;
38435;SDS011;24220;48.168;14.024;2023-07-20T01:11:31;4.05;;;3.33;;
38435;SDS011;24220;48.168;14.024;2023-07-20T01:14:15;5.38;;;3.40;;
38435;SDS011;24220;48.168;14.024;2023-07-20T01:16:44;3.80;;;2.97;;
38435;SDS011;24220;48.168;14.024;2023-07-20T01:19:16;3.40;;;2.97;;
38435;SDS011;24220;48.168;14.024;2023-07-20T01:24:36;3.60;;;2.80;;
38435;SDS011;24220;48.168;14.024;2023-07-20T01:33:01;3.63;;;3.00;;
38435;SDS011;24220;48.168;14.024;2023-07-20T01:35:30;3.75;;;2.90;;
38435;SDS011;24220;48.168;14.024;2023-07-20T01:38:02;3.13;;;2.80;;
38435;SDS011;24220;48.168;14.024;2023-07-20T01:40:35;3.30;;;3.00;;
38435;SDS011;24220;48.168;14.024;2023-07-20T01:43:02;3.63;;;3.00;;
38435;SDS011;24220;48.168;14.024;2023-07-20T01:45:30;3.58;;;3.00;;
38435;SDS011;24220;48.168;14.024;2023-07-20T01:47:57;4.97;;;3.10;;
38435;SDS011;24220;48.168;14.024;2023-07-20T01:50:25;4.43;;;3.03;;
38435;SDS011;24220;48.168;14.024;2023-07-20T01:52:55;5.10;;;3.37;;
38435;SDS011;24220;48.168;14.024;2023-07-20T01:55:23;3.30;;;3.00;;
38435;SDS011;24220;48.168;14.024;2023-07-20T01:57:50;3.50;;;3.20;;
38435;SDS011;24220;48.168;14.024;2023-07-20T02:00:20;7.28;;;3.72;;
38435;SDS011;24220;48.168;14.024;2023-07-20T02:02:51;4.57;;;3.65;;
38435;SDS011;24220;48.168;14.024;2023-07-20T02:05:18;5.18;;;3.40;;
38435;SDS011;24220;48.168;14.024;2023-07-20T02:07:46;5.97;;;3.53;;
38435;SDS011;24220;48.168;14.024;2023-07-20T02:10:13;5.20;;;3.65;;
38435;SDS011;24220;48.168;14.024;2023-07-20T02:12:43;3.97;;;3.35;;
38435;SDS011;24220;48.168;14.024;2023-07-20T02:15:10;5.22;;;3.72;;
38435;SDS011;24220;48.168;14.024;2023-07-20T02:17:42;3.63;;;3.13;;
38435;SDS011;24220;48.168;14.024;2023-07-20T02:20:12;4.80;;;3.33;;
38435;SDS011;24220;48.168;14.024;2023-07-20T02:22:45;4.18;;;3.40;;
38435;SDS011;24220;48.168;14.024;2023-07-20T02:25:14;4.47;;;3.50;;
38435;SDS011;24220;48.168;14.024;2023-07-20T02:27:41;5.32;;;3.50;;
38435;SDS011;24220;48.168;14.024;2023-07-20T02:30:09;4.57;;;3.17;;
38435;SDS011;24220;48.168;14.024;2023-07-20T02:32:39;4.78;;;3.50;;
38435;SDS011;24220;48.168;14.024;2023-07-20T02:35:06;4.40;;;3.33;;
38435;SDS011;24220;48.168;14.024;2023-07-20T02:37:34;3.90;;;3.47;;
38435;SDS011;24220;48.168;14.024;2023-07-20T02:40:01;5.22;;;3.58;;
38435;SDS011;24220;48.168;14.024;2023-07-20T02:42:33;4.78;;;3.58;;
38435;SDS011;24220;48.168;14.024;2023-07-20T02:45:02;5.32;;;3.58;;
38435;SDS011;24220;48.168;14.024;2023-07-20T02:47:32;4.22;;;3.28;;
38435;SDS011;24220;48.168;14.024;2023-07-20T02:50:02;5.10;;;3.38;;
38435;SDS011;24220;48.168;14.024;2023-07-20T02:52:32;4.18;;;3.30;;
38435;SDS011;24220;48.168;14.024;2023-07-20T02:55:01;5.20;;;3.63;;
38435;SDS011;24220;48.168;14.024;2023-07-20T02:57:29;5.72;;;4.00;;
38435;SDS011;24220;48.168;14.024;2023-07-20T02:59:56;3.53;;;3.22;;
38435;SDS011;24220;48.168;14.024;2023-07-20T03:02:26;5.93;;;3.95;;
38435;SDS011;24220;48.168;14.024;2023-07-20T03:04:53;4.28;;;3.47;;
38435;SDS011;24220;48.168;14.024;2023-07-20T03:07:23;4.20;;;3.33;;
38435;SDS011;24220;48.168;14.024;2023-07-20T03:09:50;3.90;;;3.50;;
38435;SDS011;24220;48.168;14.024;2023-07-20T03:12:18;4.30;;;3.28;;
38435;SDS011;24220;48.168;14.024;2023-07-20T03:14:45;4.55;;;3.28;;
38435;SDS011;24220;48.168;14.024;2023-07-20T03:17:12;5.13;;;3.20;;
38435;SDS011;24220;48.168;14.024;2023-07-20T03:19:40;4.47;;;3.40;;
38435;SDS011;24220;48.168;14.024;2023-07-20T03:22:07;4.80;;;3.42;;
38435;SDS011;24220;48.168;14.024;2023-07-20T03:24:34;4.75;;;3.25;;
38435;SDS011;24220;48.168;14.024;2023-07-20T03:27:04;3.85;;;3.10;;
38435;SDS011;24220;48.168;14.024;2023-07-20T03:29:32;4.72;;;3.17;;
38435;SDS011;24220;48.168;14.024;2023-07-20T03:32:04;5.25;;;3.38;;
38435;SDS011;24220;48.168;14.024;2023-07-20T03:34:34;5.20;;;3.60;;
38435;SDS011;24220;48.168;14.024;2023-07-20T03:37:01;4.03;;;3.13;;
38435;SDS011;24220;48.168;14.024;2023-07-20T03:39:33;4.28;;;3.45;;
38435;SDS011;24220;48.168;14.024;2023-07-20T03:42:00;4.28;;;3.10;;
38435;SDS011;24220;48.168;14.024;2023-07-20T03:44:28;5.70;;;3.05;;
38435;SDS011;24220;48.168;14.024;2023-07-20T03:46:57;6.47;;;3.42;;
38435;SDS011;24220;48.168;14.024;2023-07-20T03:49:25;4.18;;;3.60;;
38435;SDS011;24220;48.168;14.024;2023-07-20T03:51:52;4.38;;;3.72;;
38435;SDS011;24220;48.168;14.024;2023-07-20T03:54:22;6.30;;;3.70;;
38435;SDS011;24220;48.168;14.024;2023-07-20T03:56:51;4.32;;;3.30;;
38435;SDS011;24220;48.168;14.024;2023-07-20T03:59:21;4.30;;;3.63;;
38435;SDS011;24220;48.168;14.024;2023-07-20T04:01:51;5.07;;;4.50;;
38435;SDS011;24220;48.168;14.024;2023-07-20T04:04:18;5.13;;;2.92;;
38435;SDS011;24220;48.168;14.024;2023-07-20T04:06:45;3.95;;;3.20;;
38435;SDS011;24220;48.168;14.024;2023-07-20T04:09:13;4.00;;;3.30;;
38435;SDS011;24220;48.168;14.024;2023-07-20T04:11:40;3.97;;;3.13;;
38435;SDS011;24220;48.168;14.024;2023-07-20T04:14:10;4.18;;;3.08;;
38435;SDS011;24220;48.168;14.024;2023-07-20T04:16:40;3.97;;;2.92;;
38435;SDS011;24220;48.168;14.024;2023-07-20T04:19:10;4.68;;;3.45;;
38435;SDS011;24220;48.168;14.024;2023-07-20T04:21:41;3.63;;;3.22;;
38435;SDS011;24220;48.168;14.024;2023-07-20T04:24:09;5.00;;;3.40;;
38435;SDS011;24220;48.168;14.024;2023-07-20T04:26:36;5.32;;;3.20;;
38435;SDS011;24220;48.168;14.024;2023-07-20T04:29:04;4.60;;;3.33;;
38435;SDS011;24220;48.168;14.024;2023-07-20T04:31:34;3.50;;;3.20;;
38435;SDS011;24220;48.168;14.024;2023-07-20T04:34:02;3.33;;;3.00;;
38435;SDS011;24220;48.168;14.024;2023-07-20T04:36:29;3.58;;;3.15;;
38435;SDS011;24220;48.168;14.024;2023-07-20T04:38:59;3.88;;;3.35;;
38435;SDS011;24220;48.168;14.024;2023-07-20T04:41:26;4.22;;;3.33;;
38435;SDS011;24220;48.168;14.024;2023-07-20T04:43:53;3.85;;;2.63;;
38435;SDS011;24220;48.168;14.024;2023-07-20T04:46:21;4.82;;;3.88;;
38435;SDS011;24220;48.168;14.024;2023-07-20T04:48:48;3.50;;;2.95;;
38435;SDS011;24220;48.168;14.024;2023-07-20T04:51:16;3.78;;;2.97;;
38435;SDS011;24220;48.168;14.024;2023-07-20T04:53:47;3.38;;;3.08;;
38435;SDS011;24220;48.168;14.024;2023-07-20T04:56:14;3.90;;;3.28;;
38435;SDS011;24220;48.168;14.024;2023-07-20T04:58:42;5.70;;;3.15;;
38435;SDS011;24220;48.168;14.024;2023-07-20T05:01:12;4.93;;;3.50;;
38435;SDS011;24220;48.168;14.024;2023-07-20T05:03:42;3.72;;;3.25;;
38435;SDS011;24220;48.168;14.024;2023-07-20T05:06:10;4.72;;;3.15;;
38435;SDS011;24220;48.168;14.024;2023-07-20T05:08:37;5.47;;;3.42;;
38435;SDS011;24220;48.168;14.024;2023-07-20T05:11:07;3.90;;;3.17;;
38435;SDS011;24220;48.168;14.024;2023-07-20T05:13:34;5.85;;;3.85;;
38435;SDS011;24220;48.168;14.024;2023-07-20T05:16:01;3.90;;;2.97;;
38435;SDS011;24220;48.168;14.024;2023-07-20T05:18:31;6.53;;;4.57;;
38435;SDS011;24220;48.168;14.024;2023-07-20T05:21:05;4.20;;;3.28;;
38435;SDS011;24220;48.168;14.024;2023-07-20T05:23:35;3.80;;;3.03;;
38435;SDS011;24220;48.168;14.024;2023-07-20T05:26:05;3.60;;;3.00;;
38435;SDS011;24220;48.168;14.024;2023-07-20T05:28:32;5.03;;;3.13;;
38435;SDS011;24220;48.168;14.024;2023-07-20T05:31:02;5.40;;;3.25;;
38435;SDS011;24220;48.168;14.024;2023-07-20T05:33:30;3.80;;;3.40;;
38435;SDS011;24220;48.168;14.024;2023-07-20T05:35:57;3.13;;;2.90;;
38435;SDS011;24220;48.168;14.024;2023-07-20T05:38:25;3.25;;;2.88;;
38435;SDS011;24220;48.168;14.024;2023-07-20T05:40:58;5.40;;;3.30;;
38435;SDS011;24220;48.168;14.024;2023-07-20T05:43:27;4.03;;;2.63;;
38435;SDS011;24220;48.168;14.024;2023-07-20T05:45:54;4.57;;;2.70;;
38435;SDS011;24220;48.168;14.024;2023-07-20T05:48:24;3.92;;;2.80;;
38435;SDS011;24220;48.168;14.024;2023-07-20T05:50:51;6.13;;;3.45;;
38435;SDS011;24220;48.168;14.024;2023-07-20T05:53:19;3.70;;;2.95;;
38435;SDS011;24220;48.168;14.024;2023-07-20T05:55:51;4.80;;;2.95;;
38435;SDS011;24220;48.168;14.024;2023-07-20T05:58:22;4.43;;;2.85;;
38435;SDS011;24220;48.168;14.024;2023-07-20T06:00:53;3.92;;;3.15;;
38435;SDS011;24220;48.168;14.024;2023-07-20T06:03:22;3.17;;;2.60;;
38435;SDS011;24220;48.168;14.024;2023-07-20T06:05:50;4.63;;;3.10;;
38435;SDS011;24220;48.168;14.024;2023-07-20T06:08:19;2.80;;;2.30;;
38435;SDS011;24220;48.168;14.024;2023-07-20T06:10:49;2.53;;;2.28;;
38435;SDS011;24220;48.168;14.024;2023-07-20T06:15:47;4.15;;;2.88;;
38435;SDS011;24220;48.168;14.024;2023-07-20T06:18:18;3.58;;;2.78;;
38435;SDS011;24220;48.168;14.024;2023-07-20T06:20:50;4.88;;;2.40;;
38435;SDS011;24220;48.168;14.024;2023-07-20T06:23:21;3.65;;;2.60;;
38435;SDS011;24220;48.168;14.024;2023-07-20T06:25:48;3.08;;;2.30;;
38435;SDS011;24220;48.168;14.024;2023-07-20T06:28:15;3.63;;;2.70;;
38435;SDS011;24220;48.168;14.024;2023-07-20T06:30:45;2.65;;;2.28;;
38435;SDS011;24220;48.168;14.024;2023-07-20T06:33:15;3.08;;;2.40;;
38435;SDS011;24220;48.168;14.024;2023-07-20T06:35:42;3.13;;;2.28;;
38435;SDS011;24220;48.168;14.024;2023-07-20T06:38:11;2.72;;;2.50;;
38435;SDS011;24220;48.168;14.024;2023-07-20T06:40:45;3.38;;;2.50;;
38435;SDS011;24220;48.168;14.024;2023-07-20T06:43:13;6.70;;;2.70;;
38435;SDS011;24220;48.168;14.024;2023-07-20T06:45:43;2.38;;;1.80;;
38435;SDS011;24220;48.168;14.024;2023-07-20T06:48:11;2.47;;;2.00;;
38435;SDS011;24220;48.168;14.024;2023-07-20T06:50:38;3.35;;;2.25;;
38435;SDS011;24220;48.168;14.024;2023-07-20T06:53:06;3.35;;;2.10;;
38435;SDS011;24220;48.168;14.024;2023-07-20T06:55:33;3.20;;;2.20;;
38435;SDS011;24220;48.168;14.024;2023-07-20T06:58:08;3.00;;;2.30;;
38435;SDS011;24220;48.168;14.024;2023-07-20T07:00:36;2.28;;;2.00;;
38435;SDS011;24220;48.168;14.024;2023-07-20T07:03:05;5.10;;;2.20;;
38435;SDS011;24220;48.168;14.024;2023-07-20T07:05:36;3.03;;;2.13;;
38435;SDS011;24220;48.168;14.024;2023-07-20T07:08:04;3.70;;;2.13;;
38435;SDS011;24220;48.168;14.024;2023-07-20T07:10:32;3.38;;;2.33;;
38435;SDS011;24220;48.168;14.024;2023-07-20T07:13:01;2.75;;;2.20;;
38435;SDS011;24220;48.168;14.024;2023-07-20T07:15:31;3.10;;;2.08;;
38435;SDS011;24220;48.168;14.024;2023-07-20T07:18:01;3.75;;;2.30;;
38435;SDS011;24220;48.168;14.024;2023-07-20T07:20:31;3.50;;;2.10;;
38435;SDS011;24220;48.168;14.024;2023-07-20T07:23:01;2.95;;;1.77;;
38435;SDS011;24220;48.168;14.024;2023-07-20T07:25:31;3.03;;;2.08;;
38435;SDS011;24220;48.168;14.024;2023-07-20T07:28:00;4.22;;;2.25;;
38435;SDS011;24220;48.168;14.024;2023-07-20T07:30:30;4.47;;;2.33;;
38435;SDS011;24220;48.168;14.024;2023-07-20T07:33:03;3.85;;;2.05;;
38435;SDS011;24220;48.168;14.024;2023-07-20T07:35:30;4.35;;;2.30;;
38435;SDS011;24220;48.168;14.024;2023-07-20T07:38:00;2.70;;;2.00;;
38435;SDS011;24220;48.168;14.024;2023-07-20T07:40:44;3.55;;;2.13;;
38435;SDS011;24220;48.168;14.024;2023-07-20T07:43:13;2.63;;;1.95;;
38435;SDS011;24220;48.168;14.024;2023-07-20T07:45:40;3.40;;;1.95;;
38435;SDS011;24220;48.168;14.024;2023-07-20T07:48:10;2.10;;;1.80;;
38435;SDS011;24220;48.168;14.024;2023-07-20T07:50:39;2.92;;;1.85;;
38435;SDS011;24220;48.168;14.024;2023-07-20T07:53:09;2.75;;;1.90;;
38435;SDS011;24220;48.168;14.024;2023-07-20T07:55:39;5.43;;;2.10;;
38435;SDS011;24220;48.168;14.024;2023-07-20T07:58:08;4.88;;;1.95;;
38435;SDS011;24220;48.168;14.024;2023-07-20T08:00:37;4.38;;;2.00;;
38435;SDS011;24220;48.168;14.024;2023-07-20T08:03:07;4.38;;;2.38;;
38435;SDS011;24220;48.168;14.024;2023-07-20T08:05:39;3.60;;;2.15;;
38435;SDS011;24220;48.168;14.024;2023-07-20T08:08:09;6.32;;;3.08;;
38435;SDS011;24220;48.168;14.024;2023-07-20T08:10:36;4.45;;;2.30;;
38435;SDS011;24220;48.168;14.024;2023-07-20T08:13:06;4.10;;;2.22;;
38435;SDS011;24220;48.168;14.024;2023-07-20T08:15:35;3.65;;;2.20;;
38435;SDS011;24220;48.168;14.024;2023-07-20T08:18:04;3.47;;;2.45;;
38435;SDS011;24220;48.168;14.024;2023-07-20T08:20:35;3.50;;;2.03;;
38435;SDS011;24220;48.168;14.024;2023-07-20T08:23:02;2.25;;;1.90;;
38435;SDS011;24220;48.168;14.024;2023-07-20T08:25:30;2.80;;;1.90;;
38435;SDS011;24220;48.168;14.024;2023-07-20T08:27:57;2.55;;;2.00;;
38435;SDS011;24220;48.168;14.024;2023-07-20T08:30:24;2.78;;;1.92;;
38435;SDS011;24220;48.168;14.024;2023-07-20T08:33:05;4.43;;;2.47;;
38435;SDS011;24220;48.168;14.024;2023-07-20T08:35:35;4.47;;;2.28;;
38435;SDS011;24220;48.168;14.024;2023-07-20T08:38:04;3.05;;;2.20;;
38435;SDS011;24220;48.168;14.024;2023-07-20T08:40:39;2.92;;;2.10;;
38435;SDS011;24220;48.168;14.024;2023-07-20T08:43:09;3.03;;;2.20;;
38435;SDS011;24220;48.168;14.024;2023-07-20T08:45:40;5.03;;;1.80;;
38435;SDS011;24220;48.168;14.024;2023-07-20T08:48:08;3.70;;;2.00;;
38435;SDS011;24220;48.168;14.024;2023-07-20T08:50:36;2.53;;;1.92;;
38435;SDS011;24220;48.168;14.024;2023-07-20T08:53:04;3.50;;;2.10;;
38435;SDS011;24220;48.168;14.024;2023-07-20T08:55:33;3.53;;;2.20;;
38435;SDS011;24220;48.168;14.024;2023-07-20T08:58:04;4.95;;;1.83;;
38435;SDS011;24220;48.168;14.024;2023-07-20T09:00:35;2.15;;;1.95;;
38435;SDS011;24220;48.168;14.024;2023-07-20T09:03:05;2.00;;;1.80;;
38435;SDS011;24220;48.168;14.024;2023-07-20T09:05:32;2.15;;;1.80;;
38435;SDS011;24220;48.168;14.024;2023-07-20T09:08:01;4.05;;;1.95;;
38435;SDS011;24220;48.168;14.024;2023-07-20T09:10:32;3.00;;;1.63;;
38435;SDS011;24220;48.168;14.024;2023-07-20T09:12:59;3.72;;;1.60;;
38435;SDS011;24220;48.168;14.024;2023-07-20T09:15:28;1.70;;;1.35;;
38435;SDS011;24220;48.168;14.024;2023-07-20T09:17:56;2.55;;;1.60;;
38435;SDS011;24220;48.168;14.024;2023-07-20T09:20:27;3.50;;;1.85;;
38435;SDS011;24220;48.168;14.024;2023-07-20T09:22:58;2.97;;;1.45;;
38435;SDS011;24220;48.168;14.024;2023-07-20T09:25:26;2.55;;;1.60;;
38435;SDS011;24220;48.168;14.024;2023-07-20T09:28:01;1.73;;;1.55;;
38435;SDS011;24220;48.168;14.024;2023-07-20T09:30:31;3.80;;;1.70;;
38435;SDS011;24220;48.168;14.024;2023-07-20T09:33:00;1.90;;;1.40;;
38435;SDS011;24220;48.168;14.024;2023-07-20T09:35:27;2.40;;;1.73;;
38435;SDS011;24220;48.168;14.024;2023-07-20T09:38:08;1.58;;;1.40;;
38435;SDS011;24220;48.168;14.024;2023-07-20T09:40:41;3.55;;;1.55;;
38435;SDS011;24220;48.168;14.024;2023-07-20T09:43:15;2.33;;;1.38;;
38435;SDS011;24220;48.168;14.024;2023-07-20T09:45:45;2.83;;;1.60;;
38435;SDS011;24220;48.168;14.024;2023-07-20T09:48:18;3.30;;;1.85;;
38435;SDS011;24220;48.168;14.024;2023-07-20T09:50:55;2.80;;;1.50;;
38435;SDS011;24220;48.168;14.024;2023-07-20T09:53:24;1.60;;;1.50;;
38435;SDS011;24220;48.168;14.024;2023-07-20T09:55:52;1.73;;;1.27;;
38435;SDS011;24220;48.168;14.024;2023-07-20T09:58:21;1.45;;;1.20;;
38435;SDS011;24220;48.168;14.024;2023-07-20T10:00:48;3.10;;;1.92;;
38435;SDS011;24220;48.168;14.024;2023-07-20T10:03:20;2.13;;;1.40;;
38435;SDS011;24220;48.168;14.024;2023-07-20T10:05:54;2.20;;;1.17;;
38435;SDS011;24220;48.168;14.024;2023-07-20T10:08:33;3.78;;;1.70;;
38435;SDS011;24220;48.168;14.024;2023-07-20T10:11:09;3.20;;;1.60;;
38435;SDS011;24220;48.168;14.024;2023-07-20T10:13:42;3.08;;;2.00;;
38435;SDS011;24220;48.168;14.024;2023-07-20T10:16:31;2.20;;;1.60;;
38435;SDS011;24220;48.168;14.024;2023-07-20T10:21:47;1.48;;;1.13;;
38435;SDS011;24220;48.168;14.024;2023-07-20T10:24:24;1.33;;;1.10;;
38435;SDS011;24220;48.168;14.024;2023-07-20T10:26:56;1.65;;;1.30;;
38435;SDS011;24220;48.168;14.024;2023-07-20T10:29:24;1.45;;;1.23;;
38435;SDS011;24220;48.168;14.024;2023-07-20T10:31:56;1.02;;;0.98;;
38435;SDS011;24220;48.168;14.024;2023-07-20T10:34:24;1.60;;;1.10;;
38435;SDS011;24220;48.168;14.024;2023-07-20T10:36:52;1.30;;;1.20;;
38435;SDS011;24220;48.168;14.024;2023-07-20T10:39:27;1.73;;;0.95;;
38435;SDS011;24220;48.168;14.024;2023-07-20T10:42:06;2.10;;;1.20;;
38435;SDS011;24220;48.168;14.024;2023-07-20T10:44:37;2.88;;;1.50;;
38435;SDS011;24220;48.168;14.024;2023-07-20T10:47:10;2.63;;;1.17;;
38435;SDS011;24220;48.168;14.024;2023-07-20T10:49:58;3.03;;;1.40;;
38435;SDS011;24220;48.168;14.024;2023-07-20T10:52:41;2.67;;;1.35;;
38435;SDS011;24220;48.168;14.024;2023-07-20T10:55:18;1.75;;;1.20;;
38435;SDS011;24220;48.168;14.024;2023-07-20T10:58:06;2.40;;;1.38;;
38435;SDS011;24220;48.168;14.024;2023-07-20T11:00:56;2.50;;;1.50;;
38435;SDS011;24220;48.168;14.024;2023-07-20T11:03:38;2.05;;;1.60;;
38435;SDS011;24220;48.168;14.024;2023-07-20T11:09:11;2.00;;;1.48;;
38435;SDS011;24220;48.168;14.024;2023-07-20T11:11:44;2.88;;;1.30;;
38435;SDS011;24220;48.168;14.024;2023-07-20T11:14:20;2.05;;;1.55;;
38435;SDS011;24220;48.168;14.024;2023-07-20T11:16:55;2.55;;;1.30;;
38435;SDS011;24220;48.168;14.024;2023-07-20T11:19:25;1.80;;;1.45;;
38435;SDS011;24220;48.168;14.024;2023-07-20T11:21:56;1.70;;;1.20;;
38435;SDS011;24220;48.168;14.024;2023-07-20T11:24:32;1.77;;;1.20;;
38435;SDS011;24220;48.168;14.024;2023-07-20T11:27:07;2.83;;;1.58;;
38435;SDS011;24220;48.168;14.024;2023-07-20T11:29:35;1.58;;;1.20;;
38435;SDS011;24220;48.168;14.024;2023-07-20T11:32:04;8.20;;;1.85;;
38435;SDS011;24220;48.168;14.024;2023-07-20T11:34:34;2.17;;;1.38;;
38435;SDS011;24220;48.168;14.024;2023-07-20T11:37:02;1.38;;;1.15;;
38435;SDS011;24220;48.168;14.024;2023-07-20T11:39:36;1.30;;;1.10;;
38435;SDS011;24220;48.168;14.024;2023-07-20T11:42:03;1.70;;;1.10;;
38435;SDS011;24220;48.168;14.024;2023-07-20T11:44:39;1.20;;;1.10;;
38435;SDS011;24220;48.168;14.024;2023-07-20T11:47:10;2.38;;;1.35;;
38435;SDS011;24220;48.168;14.024;2023-07-20T11:49:41;1.48;;;1.23;;
38435;SDS011;24220;48.168;14.024;2023-07-20T11:52:10;2.15;;;1.20;;
38435;SDS011;24220;48.168;14.024;2023-07-20T11:54:44;1.55;;;1.02;;
38435;SDS011;24220;48.168;14.024;2023-07-20T11:57:21;1.42;;;1.20;;
38435;SDS011;24220;48.168;14.024;2023-07-20T11:59:58;2.40;;;1.70;;
38435;SDS011;24220;48.168;14.024;2023-07-20T12:02:32;1.25;;;1.02;;
38435;SDS011;24220;48.168;14.024;2023-07-20T12:05:02;2.00;;;1.40;;
38435;SDS011;24220;48.168;14.024;2023-07-20T12:07:34;1.85;;;1.10;;
38435;SDS011;24220;48.168;14.024;2023-07-20T12:10:07;2.13;;;1.20;;
38435;SDS011;24220;48.168;14.024;2023-07-20T12:12:39;1.75;;;1.10;;
38435;SDS011;24220;48.168;14.024;2023-07-20T12:15:15;1.55;;;0.93;;
38435;SDS011;24220;48.168;14.024;2023-07-20T12:17:46;3.10;;;1.25;;
38435;SDS011;24220;48.168;14.024;2023-07-20T12:20:28;1.30;;;1.00;;
38435;SDS011;24220;48.168;14.024;2023-07-20T12:22:59;1.33;;;1.20;;
38435;SDS011;24220;48.168;14.024;2023-07-20T12:25:32;1.98;;;1.30;;
38435;SDS011;24220;48.168;14.024;2023-07-20T12:28:14;2.35;;;1.10;;
38435;SDS011;24220;48.168;14.024;2023-07-20T12:30:42;1.92;;;1.10;;
38435;SDS011;24220;48.168;14.024;2023-07-20T12:33:13;1.73;;;1.02;;
38435;SDS011;24220;48.168;14.024;2023-07-20T12:35:44;3.47;;;1.20;;
38435;SDS011;24220;48.168;14.024;2023-07-20T12:38:14;2.80;;;1.25;;
38435;SDS011;24220;48.168;14.024;2023-07-20T12:40:42;3.45;;;1.27;;
38435;SDS011;24220;48.168;14.024;2023-07-20T12:43:09;2.03;;;1.23;;
38435;SDS011;24220;48.168;14.024;2023-07-20T12:45:39;1.88;;;1.17;;
38435;SDS011;24220;48.168;14.024;2023-07-20T12:48:08;3.05;;;1.40;;
38435;SDS011;24220;48.168;14.024;2023-07-20T12:50:35;2.08;;;1.00;;
38435;SDS011;24220;48.168;14.024;2023-07-20T12:53:05;1.60;;;1.23;;
38435;SDS011;24220;48.168;14.024;2023-07-20T12:55:32;1.75;;;1.33;;
38435;SDS011;24220;48.168;14.024;2023-07-20T12:58:00;1.30;;;1.20;;
38435;SDS011;24220;48.168;14.024;2023-07-20T13:00:27;1.52;;;1.00;;
38435;SDS011;24220;48.168;14.024;2023-07-20T13:02:54;1.60;;;1.13;;
38435;SDS011;24220;48.168;14.024;2023-07-20T13:05:24;1.57;;;1.30;;
38435;SDS011;24220;48.168;14.024;2023-07-20T13:07:58;1.67;;;1.10;;
38435;SDS011;24220;48.168;14.024;2023-07-20T13:10:31;2.25;;;1.30;;
38435;SDS011;24220;48.168;14.024;2023-07-20T13:12:59;16.25;;;1.60;;
38435;SDS011;24220;48.168;14.024;2023-07-20T13:15:31;1.60;;;1.30;;
38435;SDS011;24220;48.168;14.024;2023-07-20T13:17:59;1.85;;;1.13;;
38435;SDS011;24220;48.168;14.024;2023-07-20T13:20:27;1.70;;;1.00;;
38435;SDS011;24220;48.168;14.024;2023-07-20T13:22:55;1.67;;;1.20;;
38435;SDS011;24220;48.168;14.024;2023-07-20T13:25:22;6.32;;;1.50;;
38435;SDS011;24220;48.168;14.024;2023-07-20T13:27:52;1.60;;;1.20;;
38435;SDS011;24220;48.168;14.024;2023-07-20T13:30:19;1.15;;;1.05;;
38435;SDS011;24220;48.168;14.024;2023-07-20T13:32:48;1.67;;;1.00;;
38435;SDS011;24220;48.168;14.024;2023-07-20T13:35:16;2.15;;;1.30;;
38435;SDS011;24220;48.168;14.024;2023-07-20T13:37:44;2.72;;;1.25;;
38435;SDS011;24220;48.168;14.024;2023-07-20T13:40:11;1.95;;;1.20;;
38435;SDS011;24220;48.168;14.024;2023-07-20T13:42:40;1.58;;;1.10;;
38435;SDS011;24220;48.168;14.024;2023-07-20T13:45:07;1.88;;;1.20;;
38435;SDS011;24220;48.168;14.024;2023-07-20T13:47:35;1.30;;;1.20;;
38435;SDS011;24220;48.168;14.024;2023-07-20T13:50:05;2.13;;;1.00;;
38435;SDS011;24220;48.168;14.024;2023-07-20T13:52:33;1.00;;;0.90;;
38435;SDS011;24220;48.168;14.024;2023-07-20T13:57:34;3.15;;;1.30;;
38435;SDS011;24220;48.168;14.024;2023-07-20T14:00:04;1.65;;;1.10;;
38435;SDS011;24220;48.168;14.024;2023-07-20T14:02:36;1.73;;;1.15;;
38435;SDS011;24220;48.168;14.024;2023-07-20T14:05:06;1.83;;;1.27;;
38435;SDS011;24220;48.168;14.024;2023-07-20T14:10:04;1.30;;;1.08;;
38435;SDS011;24220;48.168;14.024;2023-07-20T14:12:35;1.50;;;1.13;;
38435;SDS011;24220;48.168;14.024;2023-07-20T14:15:02;2.97;;;1.27;;
38435;SDS011;24220;48.168;14.024;2023-07-20T14:17:31;2.67;;;1.20;;
38435;SDS011;24220;48.168;14.024;2023-07-20T14:19:59;1.38;;;1.05;;
38435;SDS011;24220;48.168;14.024;2023-07-20T14:22:47;1.85;;;1.10;;
38435;SDS011;24220;48.168;14.024;2023-07-20T14:25:17;0.88;;;0.88;;
38435;SDS011;24220;48.168;14.024;2023-07-20T14:27:46;3.15;;;1.08;;
38435;SDS011;24220;48.168;14.024;2023-07-20T14:30:15;2.17;;;0.80;;
38435;SDS011;24220;48.168;14.024;2023-07-20T14:32:43;1.92;;;1.20;;
38435;SDS011;24220;48.168;14.024;2023-07-20T14:35:11;3.28;;;1.10;;
38435;SDS011;24220;48.168;14.024;2023-07-20T14:37:41;1.13;;;0.90;;
38435;SDS011;24220;48.168;14.024;2023-07-20T14:40:08;1.17;;;1.08;;
38435;SDS011;24220;48.168;14.024;2023-07-20T14:42:36;1.20;;;1.10;;
38435;SDS011;24220;48.168;14.024;2023-07-20T14:45:08;2.85;;;1.20;;
38435;SDS011;24220;48.168;14.024;2023-07-20T14:47:39;1.30;;;1.00;;
38435;SDS011;24220;48.168;14.024;2023-07-20T14:50:06;1.05;;;0.80;;
38435;SDS011;24220;48.168;14.024;2023-07-20T14:52:34;2.05;;;1.00;;
38435;SDS011;24220;48.168;14.024;2023-07-20T14:55:01;1.23;;;1.10;;
38435;SDS011;24220;48.168;14.024;2023-07-20T14:57:29;1.20;;;1.10;;
38435;SDS011;24220;48.168;14.024;2023-07-20T14:59:56;3.83;;;1.17;;
38435;SDS011;24220;48.168;14.024;2023-07-20T15:02:23;1.20;;;1.10;;
38435;SDS011;24220;48.168;14.024;2023-07-20T15:04:53;2.42;;;0.90;;
38435;SDS011;24220;48.168;14.024;2023-07-20T15:07:22;0.93;;;0.93;;
38435;SDS011;24220;48.168;14.024;2023-07-20T15:09:52;1.20;;;0.93;;
38435;SDS011;24220;48.168;14.024;2023-07-20T15:12:19;1.20;;;1.10;;
38435;SDS011;24220;48.168;14.024;2023-07-20T15:14:49;2.90;;;1.20;;
38435;SDS011;24220;48.168;14.024;2023-07-20T15:17:34;2.95;;;1.15;;